sensor_id;sensor_type;location;lat;lon;timestamp;P1;durP1;ratioP1;P2;durP2;ratioP2
71759;SDS011;59919;48.112;16.280;2023-10-08T00:01:40;1.60;;;0.90;;
71759;SDS011;59919;48.112;16.280;2023-10-08T00:04:14;1.65;;;0.90;;
71759;SDS011;59919;48.112;16.280;2023-10-08T00:06:49;1.25;;;0.90;;
71759;SDS011;59919;48.112;16.280;2023-10-08T00:09:25;1.40;;;1.00;;
71759;SDS011;59919;48.112;16.280;2023-10-08T00:11:56;1.98;;;1.00;;
71759;SDS011;59919;48.112;16.280;2023-10-08T00:14:31;1.50;;;0.80;;
71759;SDS011;59919;48.112;16.280;2023-10-08T00:17:03;1.38;;;0.75;;
71759;SDS011;59919;48.112;16.280;2023-10-08T00:19:36;1.20;;;0.90;;
71759;SDS011;59919;48.112;16.280;2023-10-08T00:22:10;2.10;;;0.98;;
71759;SDS011;59919;48.112;16.280;2023-10-08T00:24:43;1.52;;;0.80;;
71759;SDS011;59919;48.112;16.280;2023-10-08T00:27:17;1.52;;;1.00;;
71759;SDS011;59919;48.112;16.280;2023-10-08T00:29:48;1.60;;;1.10;;
71759;SDS011;59919;48.112;16.280;2023-10-08T00:32:19;1.50;;;0.90;;
71759;SDS011;59919;48.112;16.280;2023-10-08T00:34:52;1.40;;;0.80;;
71759;SDS011;59919;48.112;16.280;2023-10-08T00:37:25;1.75;;;1.00;;
71759;SDS011;59919;48.112;16.280;2023-10-08T00:39:57;1.52;;;1.00;;
71759;SDS011;59919;48.112;16.280;2023-10-08T00:42:35;1.50;;;0.80;;
71759;SDS011;59919;48.112;16.280;2023-10-08T00:45:19;1.27;;;0.77;;
71759;SDS011;59919;48.112;16.280;2023-10-08T00:47:52;1.70;;;0.70;;
71759;SDS011;59919;48.112;16.280;2023-10-08T00:50:27;1.05;;;0.68;;
71759;SDS011;59919;48.112;16.280;2023-10-08T00:53:13;2.33;;;1.10;;
71759;SDS011;59919;48.112;16.280;2023-10-08T00:55:54;1.63;;;0.93;;
71759;SDS011;59919;48.112;16.280;2023-10-08T00:58:35;1.33;;;0.85;;
71759;SDS011;59919;48.112;16.280;2023-10-08T01:01:09;1.80;;;1.05;;
71759;SDS011;59919;48.112;16.280;2023-10-08T01:03:42;1.17;;;0.65;;
71759;SDS011;59919;48.112;16.280;2023-10-08T01:06:17;1.92;;;0.90;;
71759;SDS011;59919;48.112;16.280;2023-10-08T01:08:49;1.65;;;0.90;;
71759;SDS011;59919;48.112;16.280;2023-10-08T01:11:24;1.08;;;0.68;;
71759;SDS011;59919;48.112;16.280;2023-10-08T01:14:18;1.95;;;0.90;;
71759;SDS011;59919;48.112;16.280;2023-10-08T01:16:51;2.20;;;1.00;;
71759;SDS011;59919;48.112;16.280;2023-10-08T01:19:22;1.35;;;0.93;;
71759;SDS011;59919;48.112;16.280;2023-10-08T01:21:56;1.73;;;0.95;;
71759;SDS011;59919;48.112;16.280;2023-10-08T01:24:30;1.70;;;0.90;;
71759;SDS011;59919;48.112;16.280;2023-10-08T01:27:07;1.08;;;0.70;;
71759;SDS011;59919;48.112;16.280;2023-10-08T01:29:42;1.17;;;0.90;;
71759;SDS011;59919;48.112;16.280;2023-10-08T01:32:15;1.70;;;1.08;;
71759;SDS011;59919;48.112;16.280;2023-10-08T01:34:48;1.85;;;1.00;;
71759;SDS011;59919;48.112;16.280;2023-10-08T01:37:20;1.42;;;0.77;;
71759;SDS011;59919;48.112;16.280;2023-10-08T01:39:57;0.70;;;0.60;;
71759;SDS011;59919;48.112;16.280;2023-10-08T01:42:34;2.35;;;0.82;;
71759;SDS011;59919;48.112;16.280;2023-10-08T01:45:11;1.45;;;0.90;;
71759;SDS011;59919;48.112;16.280;2023-10-08T01:47:46;1.17;;;0.93;;
71759;SDS011;59919;48.112;16.280;2023-10-08T01:50:22;1.55;;;1.13;;
71759;SDS011;59919;48.112;16.280;2023-10-08T01:52:55;1.27;;;0.95;;
71759;SDS011;59919;48.112;16.280;2023-10-08T01:55:26;1.08;;;0.82;;
71759;SDS011;59919;48.112;16.280;2023-10-08T01:58:00;2.70;;;0.90;;
71759;SDS011;59919;48.112;16.280;2023-10-08T02:00:31;1.90;;;0.98;;
71759;SDS011;59919;48.112;16.280;2023-10-08T02:03:02;1.25;;;0.77;;
71759;SDS011;59919;48.112;16.280;2023-10-08T02:05:37;1.63;;;0.95;;
71759;SDS011;59919;48.112;16.280;2023-10-08T02:08:14;1.70;;;0.90;;
71759;SDS011;59919;48.112;16.280;2023-10-08T02:10:47;1.50;;;0.80;;
71759;SDS011;59919;48.112;16.280;2023-10-08T02:13:19;1.33;;;0.80;;
71759;SDS011;59919;48.112;16.280;2023-10-08T02:15:52;1.42;;;0.80;;
71759;SDS011;59919;48.112;16.280;2023-10-08T02:18:28;1.65;;;1.02;;
71759;SDS011;59919;48.112;16.280;2023-10-08T02:21:03;1.80;;;1.15;;
71759;SDS011;59919;48.112;16.280;2023-10-08T02:23:37;1.95;;;0.85;;
71759;SDS011;59919;48.112;16.280;2023-10-08T02:26:11;1.63;;;1.10;;
71759;SDS011;59919;48.112;16.280;2023-10-08T02:28:44;1.65;;;0.98;;
71759;SDS011;59919;48.112;16.280;2023-10-08T02:31:21;1.50;;;0.95;;
71759;SDS011;59919;48.112;16.280;2023-10-08T02:33:54;2.45;;;1.10;;
71759;SDS011;59919;48.112;16.280;2023-10-08T02:36:31;1.38;;;0.90;;
71759;SDS011;59919;48.112;16.280;2023-10-08T02:39:05;1.35;;;0.90;;
71759;SDS011;59919;48.112;16.280;2023-10-08T02:41:56;1.38;;;0.90;;
71759;SDS011;59919;48.112;16.280;2023-10-08T02:44:33;1.48;;;0.80;;
71759;SDS011;59919;48.112;16.280;2023-10-08T02:47:12;2.10;;;1.00;;
71759;SDS011;59919;48.112;16.280;2023-10-08T02:49:47;1.20;;;0.82;;
71759;SDS011;59919;48.112;16.280;2023-10-08T02:52:22;1.98;;;0.90;;
71759;SDS011;59919;48.112;16.280;2023-10-08T02:54:59;1.15;;;0.93;;
71759;SDS011;59919;48.112;16.280;2023-10-08T02:57:35;1.60;;;0.82;;
71759;SDS011;59919;48.112;16.280;2023-10-08T03:00:14;1.48;;;0.88;;
71759;SDS011;59919;48.112;16.280;2023-10-08T03:02:45;1.10;;;0.63;;
71759;SDS011;59919;48.112;16.280;2023-10-08T03:05:17;0.85;;;0.73;;
71759;SDS011;59919;48.112;16.280;2023-10-08T03:07:53;1.30;;;0.90;;
71759;SDS011;59919;48.112;16.280;2023-10-08T03:10:24;1.40;;;0.80;;
71759;SDS011;59919;48.112;16.280;2023-10-08T03:13:05;1.08;;;0.70;;
71759;SDS011;59919;48.112;16.280;2023-10-08T03:15:40;1.20;;;0.82;;
71759;SDS011;59919;48.112;16.280;2023-10-08T03:18:17;1.70;;;1.00;;
71759;SDS011;59919;48.112;16.280;2023-10-08T03:20:51;1.13;;;0.60;;
71759;SDS011;59919;48.112;16.280;2023-10-08T03:23:37;1.42;;;0.80;;
71759;SDS011;59919;48.112;16.280;2023-10-08T03:26:14;1.95;;;1.10;;
71759;SDS011;59919;48.112;16.280;2023-10-08T03:29:04;1.50;;;0.98;;
71759;SDS011;59919;48.112;16.280;2023-10-08T03:31:47;2.28;;;0.90;;
71759;SDS011;59919;48.112;16.280;2023-10-08T03:34:25;1.35;;;0.88;;
71759;SDS011;59919;48.112;16.280;2023-10-08T03:36:58;1.90;;;1.10;;
71759;SDS011;59919;48.112;16.280;2023-10-08T03:39:38;1.67;;;0.90;;
71759;SDS011;59919;48.112;16.280;2023-10-08T03:42:22;1.40;;;0.90;;
71759;SDS011;59919;48.112;16.280;2023-10-08T03:44:54;1.30;;;0.93;;
71759;SDS011;59919;48.112;16.280;2023-10-08T03:47:27;1.23;;;0.98;;
71759;SDS011;59919;48.112;16.280;2023-10-08T03:50:01;1.55;;;1.08;;
71759;SDS011;59919;48.112;16.280;2023-10-08T03:52:39;1.40;;;0.90;;
71759;SDS011;59919;48.112;16.280;2023-10-08T03:55:13;1.98;;;1.17;;
71759;SDS011;59919;48.112;16.280;2023-10-08T03:57:52;1.15;;;0.85;;
71759;SDS011;59919;48.112;16.280;2023-10-08T04:03:02;1.63;;;0.82;;
71759;SDS011;59919;48.112;16.280;2023-10-08T04:05:38;1.98;;;1.10;;
71759;SDS011;59919;48.112;16.280;2023-10-08T04:08:28;1.25;;;0.80;;
71759;SDS011;59919;48.112;16.280;2023-10-08T04:11:25;1.40;;;1.00;;
71759;SDS011;59919;48.112;16.280;2023-10-08T04:14:05;1.77;;;0.80;;
71759;SDS011;59919;48.112;16.280;2023-10-08T04:16:36;2.38;;;0.90;;
71759;SDS011;59919;48.112;16.280;2023-10-08T04:19:10;1.40;;;0.80;;
71759;SDS011;59919;48.112;16.280;2023-10-08T04:21:42;2.67;;;0.90;;
71759;SDS011;59919;48.112;16.280;2023-10-08T04:24:13;1.40;;;0.85;;
71759;SDS011;59919;48.112;16.280;2023-10-08T04:26:45;1.40;;;0.90;;
71759;SDS011;59919;48.112;16.280;2023-10-08T04:29:16;1.55;;;0.80;;
71759;SDS011;59919;48.112;16.280;2023-10-08T04:31:53;1.17;;;0.75;;
71759;SDS011;59919;48.112;16.280;2023-10-08T04:34:38;1.63;;;0.93;;
71759;SDS011;59919;48.112;16.280;2023-10-08T04:37:14;1.52;;;0.80;;
71759;SDS011;59919;48.112;16.280;2023-10-08T04:39:51;1.85;;;1.15;;
71759;SDS011;59919;48.112;16.280;2023-10-08T04:42:30;2.25;;;0.98;;
71759;SDS011;59919;48.112;16.280;2023-10-08T04:45:03;1.08;;;0.80;;
71759;SDS011;59919;48.112;16.280;2023-10-08T04:47:35;1.40;;;0.90;;
71759;SDS011;59919;48.112;16.280;2023-10-08T04:50:12;1.20;;;0.90;;
71759;SDS011;59919;48.112;16.280;2023-10-08T04:52:46;1.67;;;0.80;;
71759;SDS011;59919;48.112;16.280;2023-10-08T04:55:29;1.70;;;1.00;;
71759;SDS011;59919;48.112;16.280;2023-10-08T04:58:02;1.30;;;0.80;;
71759;SDS011;59919;48.112;16.280;2023-10-08T05:00:49;1.63;;;0.90;;
71759;SDS011;59919;48.112;16.280;2023-10-08T05:03:30;1.42;;;0.90;;
71759;SDS011;59919;48.112;16.280;2023-10-08T05:06:16;1.95;;;0.98;;
71759;SDS011;59919;48.112;16.280;2023-10-08T05:08:58;1.13;;;0.88;;
71759;SDS011;59919;48.112;16.280;2023-10-08T05:11:29;1.63;;;0.90;;
71759;SDS011;59919;48.112;16.280;2023-10-08T05:14:22;2.33;;;0.80;;
71759;SDS011;59919;48.112;16.280;2023-10-08T05:17:06;1.33;;;0.85;;
71759;SDS011;59919;48.112;16.280;2023-10-08T05:19:51;1.75;;;1.08;;
71759;SDS011;59919;48.112;16.280;2023-10-08T05:22:42;1.23;;;0.75;;
71759;SDS011;59919;48.112;16.280;2023-10-08T05:25:18;1.65;;;1.35;;
71759;SDS011;59919;48.112;16.280;2023-10-08T05:27:52;1.13;;;0.70;;
71759;SDS011;59919;48.112;16.280;2023-10-08T05:30:27;1.60;;;0.88;;
71759;SDS011;59919;48.112;16.280;2023-10-08T05:33:14;1.25;;;0.82;;
71759;SDS011;59919;48.112;16.280;2023-10-08T05:35:55;1.40;;;0.80;;
71759;SDS011;59919;48.112;16.280;2023-10-08T05:38:41;1.92;;;0.95;;
71759;SDS011;59919;48.112;16.280;2023-10-08T05:41:19;2.15;;;0.63;;
71759;SDS011;59919;48.112;16.280;2023-10-08T05:44:09;1.45;;;1.00;;
71759;SDS011;59919;48.112;16.280;2023-10-08T05:46:54;1.83;;;1.00;;
71759;SDS011;59919;48.112;16.280;2023-10-08T05:49:25;1.40;;;0.90;;
71759;SDS011;59919;48.112;16.280;2023-10-08T05:52:08;1.70;;;1.00;;
71759;SDS011;59919;48.112;16.280;2023-10-08T05:55:11;1.52;;;0.77;;
71759;SDS011;59919;48.112;16.280;2023-10-08T05:57:59;0.98;;;0.80;;
71759;SDS011;59919;48.112;16.280;2023-10-08T06:00:49;1.60;;;0.80;;
71759;SDS011;59919;48.112;16.280;2023-10-08T06:03:39;1.13;;;0.90;;
71759;SDS011;59919;48.112;16.280;2023-10-08T06:06:30;1.00;;;0.70;;
71759;SDS011;59919;48.112;16.280;2023-10-08T06:09:08;1.38;;;0.85;;
71759;SDS011;59919;48.112;16.280;2023-10-08T06:11:41;1.95;;;0.85;;
71759;SDS011;59919;48.112;16.280;2023-10-08T06:14:26;1.70;;;0.93;;
71759;SDS011;59919;48.112;16.280;2023-10-08T06:17:12;1.58;;;1.10;;
71759;SDS011;59919;48.112;16.280;2023-10-08T06:19:54;1.20;;;0.80;;
71759;SDS011;59919;48.112;16.280;2023-10-08T06:22:25;1.92;;;1.05;;
71759;SDS011;59919;48.112;16.280;2023-10-08T06:24:57;1.77;;;1.20;;
71759;SDS011;59919;48.112;16.280;2023-10-08T06:27:48;1.55;;;0.85;;
71759;SDS011;59919;48.112;16.280;2023-10-08T06:30:20;1.75;;;1.15;;
71759;SDS011;59919;48.112;16.280;2023-10-08T06:32:54;1.80;;;1.20;;
71759;SDS011;59919;48.112;16.280;2023-10-08T06:35:31;2.30;;;1.00;;
71759;SDS011;59919;48.112;16.280;2023-10-08T06:38:06;1.52;;;0.98;;
71759;SDS011;59919;48.112;16.280;2023-10-08T06:40:47;1.65;;;0.82;;
71759;SDS011;59919;48.112;16.280;2023-10-08T06:43:18;1.50;;;1.10;;
71759;SDS011;59919;48.112;16.280;2023-10-08T06:45:52;1.98;;;1.10;;
71759;SDS011;59919;48.112;16.280;2023-10-08T06:48:24;1.73;;;1.02;;
71759;SDS011;59919;48.112;16.280;2023-10-08T06:50:55;1.58;;;0.82;;
71759;SDS011;59919;48.112;16.280;2023-10-08T06:53:38;1.60;;;0.85;;
71759;SDS011;59919;48.112;16.280;2023-10-08T06:56:23;1.40;;;0.80;;
71759;SDS011;59919;48.112;16.280;2023-10-08T06:58:54;2.38;;;1.00;;
71759;SDS011;59919;48.112;16.280;2023-10-08T07:01:26;1.50;;;0.98;;
71759;SDS011;59919;48.112;16.280;2023-10-08T07:03:59;1.52;;;1.08;;
71759;SDS011;59919;48.112;16.280;2023-10-08T07:06:40;1.40;;;0.95;;
71759;SDS011;59919;48.112;16.280;2023-10-08T07:09:12;2.17;;;1.10;;
71759;SDS011;59919;48.112;16.280;2023-10-08T07:11:53;1.17;;;1.05;;
71759;SDS011;59919;48.112;16.280;2023-10-08T07:14:26;1.45;;;0.73;;
71759;SDS011;59919;48.112;16.280;2023-10-08T07:16:58;1.60;;;0.90;;
71759;SDS011;59919;48.112;16.280;2023-10-08T07:19:31;1.45;;;0.93;;
71759;SDS011;59919;48.112;16.280;2023-10-08T07:22:11;1.08;;;0.90;;
71759;SDS011;59919;48.112;16.280;2023-10-08T07:25:01;1.50;;;0.82;;
71759;SDS011;59919;48.112;16.280;2023-10-08T07:27:40;1.92;;;1.17;;
71759;SDS011;59919;48.112;16.280;2023-10-08T07:30:20;2.05;;;1.00;;
71759;SDS011;59919;48.112;16.280;2023-10-08T07:32:57;1.40;;;0.90;;
71759;SDS011;59919;48.112;16.280;2023-10-08T07:35:29;1.40;;;0.90;;
71759;SDS011;59919;48.112;16.280;2023-10-08T07:38:09;1.50;;;1.10;;
71759;SDS011;59919;48.112;16.280;2023-10-08T07:40:40;1.75;;;1.05;;
71759;SDS011;59919;48.112;16.280;2023-10-08T07:43:14;1.45;;;0.98;;
71759;SDS011;59919;48.112;16.280;2023-10-08T07:45:51;1.50;;;1.00;;
71759;SDS011;59919;48.112;16.280;2023-10-08T07:48:24;1.20;;;0.85;;
71759;SDS011;59919;48.112;16.280;2023-10-08T07:51:00;1.67;;;0.90;;
71759;SDS011;59919;48.112;16.280;2023-10-08T07:53:32;1.55;;;1.05;;
71759;SDS011;59919;48.112;16.280;2023-10-08T07:56:14;1.30;;;0.90;;
71759;SDS011;59919;48.112;16.280;2023-10-08T07:58:46;1.38;;;0.90;;
71759;SDS011;59919;48.112;16.280;2023-10-08T08:01:18;1.48;;;0.90;;
71759;SDS011;59919;48.112;16.280;2023-10-08T08:03:51;2.10;;;1.05;;
71759;SDS011;59919;48.112;16.280;2023-10-08T08:06:22;1.40;;;0.80;;
71759;SDS011;59919;48.112;16.280;2023-10-08T08:08:53;1.70;;;0.90;;
71759;SDS011;59919;48.112;16.280;2023-10-08T08:11:26;1.45;;;0.80;;
71759;SDS011;59919;48.112;16.280;2023-10-08T08:13:57;1.55;;;0.90;;
71759;SDS011;59919;48.112;16.280;2023-10-08T08:16:30;0.82;;;0.73;;
71759;SDS011;59919;48.112;16.280;2023-10-08T08:19:06;1.48;;;0.90;;
71759;SDS011;59919;48.112;16.280;2023-10-08T08:21:41;1.75;;;1.13;;
71759;SDS011;59919;48.112;16.280;2023-10-08T08:24:17;1.23;;;0.90;;
71759;SDS011;59919;48.112;16.280;2023-10-08T08:27:05;1.63;;;1.00;;
71759;SDS011;59919;48.112;16.280;2023-10-08T08:29:42;1.98;;;1.05;;
71759;SDS011;59919;48.112;16.280;2023-10-08T08:32:16;1.42;;;0.80;;
71759;SDS011;59919;48.112;16.280;2023-10-08T08:34:52;1.42;;;0.90;;
71759;SDS011;59919;48.112;16.280;2023-10-08T08:37:23;1.45;;;0.80;;
71759;SDS011;59919;48.112;16.280;2023-10-08T08:39:57;2.20;;;1.00;;
71759;SDS011;59919;48.112;16.280;2023-10-08T08:42:28;1.25;;;0.68;;
71759;SDS011;59919;48.112;16.280;2023-10-08T08:45:08;1.40;;;1.00;;
71759;SDS011;59919;48.112;16.280;2023-10-08T08:47:41;1.70;;;1.10;;
71759;SDS011;59919;48.112;16.280;2023-10-08T08:50:12;2.10;;;1.08;;
71759;SDS011;59919;48.112;16.280;2023-10-08T08:52:46;1.25;;;0.77;;
71759;SDS011;59919;48.112;16.280;2023-10-08T08:55:18;1.45;;;1.00;;
71759;SDS011;59919;48.112;16.280;2023-10-08T08:57:51;0.98;;;0.80;;
71759;SDS011;59919;48.112;16.280;2023-10-08T09:00:28;2.00;;;0.93;;
71759;SDS011;59919;48.112;16.280;2023-10-08T09:03:00;1.90;;;0.90;;
71759;SDS011;59919;48.112;16.280;2023-10-08T09:05:35;2.28;;;0.98;;
71759;SDS011;59919;48.112;16.280;2023-10-08T09:08:07;1.60;;;0.90;;
71759;SDS011;59919;48.112;16.280;2023-10-08T09:10:40;2.13;;;0.93;;
71759;SDS011;59919;48.112;16.280;2023-10-08T09:13:22;1.88;;;0.90;;
71759;SDS011;59919;48.112;16.280;2023-10-08T09:15:58;1.67;;;0.90;;
71759;SDS011;59919;48.112;16.280;2023-10-08T09:18:35;1.17;;;0.82;;
71759;SDS011;59919;48.112;16.280;2023-10-08T09:21:07;1.70;;;0.90;;
71759;SDS011;59919;48.112;16.280;2023-10-08T09:23:44;1.40;;;0.90;;
71759;SDS011;59919;48.112;16.280;2023-10-08T09:26:24;1.63;;;1.10;;
71759;SDS011;59919;48.112;16.280;2023-10-08T09:29:00;1.35;;;1.02;;
71759;SDS011;59919;48.112;16.280;2023-10-08T09:31:32;1.33;;;0.88;;
71759;SDS011;59919;48.112;16.280;2023-10-08T09:34:06;2.00;;;1.15;;
71759;SDS011;59919;48.112;16.280;2023-10-08T09:36:37;1.17;;;0.90;;
71759;SDS011;59919;48.112;16.280;2023-10-08T09:39:09;1.40;;;0.90;;
71759;SDS011;59919;48.112;16.280;2023-10-08T09:41:51;1.42;;;0.80;;
71759;SDS011;59919;48.112;16.280;2023-10-08T09:44:26;0.93;;;0.70;;
71759;SDS011;59919;48.112;16.280;2023-10-08T09:46:59;1.25;;;0.95;;
71759;SDS011;59919;48.112;16.280;2023-10-08T09:49:41;1.80;;;0.90;;
71759;SDS011;59919;48.112;16.280;2023-10-08T09:52:46;2.00;;;0.90;;
71759;SDS011;59919;48.112;16.280;2023-10-08T09:55:30;1.08;;;0.85;;
71759;SDS011;59919;48.112;16.280;2023-10-08T09:58:01;1.48;;;0.77;;
71759;SDS011;59919;48.112;16.280;2023-10-08T10:00:33;1.88;;;0.93;;
71759;SDS011;59919;48.112;16.280;2023-10-08T10:03:04;1.88;;;1.00;;
71759;SDS011;59919;48.112;16.280;2023-10-08T10:05:36;1.88;;;0.85;;
71759;SDS011;59919;48.112;16.280;2023-10-08T10:08:09;1.40;;;0.80;;
71759;SDS011;59919;48.112;16.280;2023-10-08T10:10:40;1.42;;;0.73;;
71759;SDS011;59919;48.112;16.280;2023-10-08T10:13:18;1.48;;;0.80;;
71759;SDS011;59919;48.112;16.280;2023-10-08T10:15:51;1.60;;;0.90;;
71759;SDS011;59919;48.112;16.280;2023-10-08T10:21:45;2.28;;;0.60;;
71759;SDS011;59919;48.112;16.280;2023-10-08T10:24:03;2.67;;;0.93;;
71759;SDS011;59919;48.112;16.280;2023-10-08T10:26:38;1.20;;;0.82;;
71759;SDS011;59919;48.112;16.280;2023-10-08T10:31:42;1.70;;;0.80;;
71759;SDS011;59919;48.112;16.280;2023-10-08T10:34:18;1.83;;;0.88;;
71759;SDS011;59919;48.112;16.280;2023-10-08T10:36:58;1.95;;;0.90;;
71759;SDS011;59919;48.112;16.280;2023-10-08T10:39:39;1.42;;;0.82;;
71759;SDS011;59919;48.112;16.280;2023-10-08T10:42:13;1.48;;;0.70;;
71759;SDS011;59919;48.112;16.280;2023-10-08T10:44:53;1.58;;;0.70;;
71759;SDS011;59919;48.112;16.280;2023-10-08T10:47:29;0.77;;;0.63;;
71759;SDS011;59919;48.112;16.280;2023-10-08T10:50:13;2.45;;;0.90;;
71759;SDS011;59919;48.112;16.280;2023-10-08T10:52:59;1.17;;;0.60;;
71759;SDS011;59919;48.112;16.280;2023-10-08T10:55:40;0.75;;;0.55;;
71759;SDS011;59919;48.112;16.280;2023-10-08T10:58:30;1.17;;;0.80;;
71759;SDS011;59919;48.112;16.280;2023-10-08T11:01:09;1.63;;;0.70;;
71759;SDS011;59919;48.112;16.280;2023-10-08T11:03:56;0.80;;;0.68;;
71759;SDS011;59919;48.112;16.280;2023-10-08T11:06:30;1.45;;;0.80;;
71759;SDS011;59919;48.112;16.280;2023-10-08T11:09:03;2.20;;;0.70;;
71759;SDS011;59919;48.112;16.280;2023-10-08T11:11:38;1.50;;;0.80;;
71759;SDS011;59919;48.112;16.280;2023-10-08T11:14:15;2.13;;;0.77;;
71759;SDS011;59919;48.112;16.280;2023-10-08T11:16:49;0.80;;;0.60;;
71759;SDS011;59919;48.112;16.280;2023-10-08T11:19:22;0.90;;;0.70;;
71759;SDS011;59919;48.112;16.280;2023-10-08T11:21:53;1.02;;;0.60;;
71759;SDS011;59919;48.112;16.280;2023-10-08T11:24:30;0.68;;;0.50;;
71759;SDS011;59919;48.112;16.280;2023-10-08T11:27:06;0.60;;;0.40;;
71759;SDS011;59919;48.112;16.280;2023-10-08T11:29:46;3.80;;;0.70;;
71759;SDS011;59919;48.112;16.280;2023-10-08T11:32:18;0.90;;;0.60;;
71759;SDS011;59919;48.112;16.280;2023-10-08T11:34:59;1.00;;;0.68;;
71759;SDS011;59919;48.112;16.280;2023-10-08T11:37:31;1.23;;;0.60;;
71759;SDS011;59919;48.112;16.280;2023-10-08T11:40:06;1.00;;;0.47;;
71759;SDS011;59919;48.112;16.280;2023-10-08T11:42:47;0.93;;;0.50;;
71759;SDS011;59919;48.112;16.280;2023-10-08T11:45:21;0.77;;;0.50;;
71759;SDS011;59919;48.112;16.280;2023-10-08T11:47:59;1.02;;;0.70;;
71759;SDS011;59919;48.112;16.280;2023-10-08T11:50:42;0.95;;;0.60;;
71759;SDS011;59919;48.112;16.280;2023-10-08T11:53:14;1.15;;;0.65;;
71759;SDS011;59919;48.112;16.280;2023-10-08T11:55:45;0.80;;;0.50;;
71759;SDS011;59919;48.112;16.280;2023-10-08T11:58:18;0.73;;;0.50;;
71759;SDS011;59919;48.112;16.280;2023-10-08T12:00:50;0.45;;;0.40;;
71759;SDS011;59919;48.112;16.280;2023-10-08T12:03:25;0.43;;;0.30;;
71759;SDS011;59919;48.112;16.280;2023-10-08T12:05:57;0.80;;;0.50;;
71759;SDS011;59919;48.112;16.280;2023-10-08T12:08:31;0.88;;;0.60;;
71759;SDS011;59919;48.112;16.280;2023-10-08T12:11:09;0.68;;;0.50;;
71759;SDS011;59919;48.112;16.280;2023-10-08T12:13:42;0.50;;;0.32;;
71759;SDS011;59919;48.112;16.280;2023-10-08T12:16:17;1.60;;;0.60;;
71759;SDS011;59919;48.112;16.280;2023-10-08T12:18:54;1.15;;;0.60;;
71759;SDS011;59919;48.112;16.280;2023-10-08T12:21:29;0.73;;;0.50;;
71759;SDS011;59919;48.112;16.280;2023-10-08T12:24:00;0.70;;;0.40;;
71759;SDS011;59919;48.112;16.280;2023-10-08T12:26:35;0.60;;;0.50;;
71759;SDS011;59919;48.112;16.280;2023-10-08T12:29:09;1.00;;;0.47;;
71759;SDS011;59919;48.112;16.280;2023-10-08T12:31:42;0.90;;;0.60;;
71759;SDS011;59919;48.112;16.280;2023-10-08T12:34:18;0.80;;;0.30;;
71759;SDS011;59919;48.112;16.280;2023-10-08T12:36:49;0.70;;;0.40;;
71759;SDS011;59919;48.112;16.280;2023-10-08T12:39:21;1.00;;;0.50;;
71759;SDS011;59919;48.112;16.280;2023-10-08T12:41:56;0.75;;;0.40;;
71759;SDS011;59919;48.112;16.280;2023-10-08T12:44:35;0.70;;;0.47;;
71759;SDS011;59919;48.112;16.280;2023-10-08T12:47:07;0.88;;;0.32;;
71759;SDS011;59919;48.112;16.280;2023-10-08T12:49:38;0.73;;;0.32;;
71759;SDS011;59919;48.112;16.280;2023-10-08T12:52:09;0.85;;;0.50;;
71759;SDS011;59919;48.112;16.280;2023-10-08T12:54:42;0.70;;;0.50;;
71759;SDS011;59919;48.112;16.280;2023-10-08T12:57:15;0.93;;;0.50;;
71759;SDS011;59919;48.112;16.280;2023-10-08T12:59:49;1.70;;;0.60;;
71759;SDS011;59919;48.112;16.280;2023-10-08T13:02:22;0.93;;;0.43;;
71759;SDS011;59919;48.112;16.280;2023-10-08T13:04:58;0.87;;;0.40;;
71759;SDS011;59919;48.112;16.280;2023-10-08T13:07:30;0.77;;;0.40;;
71759;SDS011;59919;48.112;16.280;2023-10-08T13:10:09;1.23;;;0.60;;
71759;SDS011;59919;48.112;16.280;2023-10-08T13:12:45;1.73;;;0.40;;
71759;SDS011;59919;48.112;16.280;2023-10-08T13:15:16;0.98;;;0.50;;
71759;SDS011;59919;48.112;16.280;2023-10-08T13:17:47;0.93;;;0.60;;
71759;SDS011;59919;48.112;16.280;2023-10-08T13:20:18;0.93;;;0.43;;
71759;SDS011;59919;48.112;16.280;2023-10-08T13:22:51;0.68;;;0.43;;
71759;SDS011;59919;48.112;16.280;2023-10-08T13:25:22;1.42;;;0.55;;
71759;SDS011;59919;48.112;16.280;2023-10-08T13:27:53;1.13;;;0.50;;
71759;SDS011;59919;48.112;16.280;2023-10-08T13:30:26;1.20;;;0.43;;
71759;SDS011;59919;48.112;16.280;2023-10-08T13:32:58;0.95;;;0.40;;
71759;SDS011;59919;48.112;16.280;2023-10-08T13:35:30;1.45;;;0.70;;
71759;SDS011;59919;48.112;16.280;2023-10-08T13:38:01;0.77;;;0.40;;
71759;SDS011;59919;48.112;16.280;2023-10-08T13:40:40;1.33;;;0.80;;
71759;SDS011;59919;48.112;16.280;2023-10-08T13:43:34;0.80;;;0.50;;
71759;SDS011;59919;48.112;16.280;2023-10-08T13:46:05;1.27;;;0.70;;
71759;SDS011;59919;48.112;16.280;2023-10-08T13:48:43;2.47;;;0.90;;
71759;SDS011;59919;48.112;16.280;2023-10-08T13:51:21;1.20;;;0.52;;
71759;SDS011;59919;48.112;16.280;2023-10-08T13:53:56;2.28;;;0.70;;
71759;SDS011;59919;48.112;16.280;2023-10-08T13:56:33;0.85;;;0.47;;
71759;SDS011;59919;48.112;16.280;2023-10-08T13:59:08;1.30;;;0.57;;
71759;SDS011;59919;48.112;16.280;2023-10-08T14:01:45;1.13;;;0.50;;
71759;SDS011;59919;48.112;16.280;2023-10-08T14:04:16;2.05;;;0.70;;
71759;SDS011;59919;48.112;16.280;2023-10-08T14:06:50;1.25;;;0.63;;
71759;SDS011;59919;48.112;16.280;2023-10-08T14:09:27;1.02;;;0.57;;
71759;SDS011;59919;48.112;16.280;2023-10-08T14:12:02;1.33;;;0.70;;
71759;SDS011;59919;48.112;16.280;2023-10-08T14:14:37;1.17;;;0.50;;
71759;SDS011;59919;48.112;16.280;2023-10-08T14:17:14;1.48;;;0.70;;
71759;SDS011;59919;48.112;16.280;2023-10-08T14:19:48;1.25;;;0.63;;
71759;SDS011;59919;48.112;16.280;2023-10-08T14:22:37;2.05;;;0.60;;
71759;SDS011;59919;48.112;16.280;2023-10-08T14:25:08;0.70;;;0.40;;
71759;SDS011;59919;48.112;16.280;2023-10-08T14:27:42;1.83;;;0.80;;
71759;SDS011;59919;48.112;16.280;2023-10-08T14:30:22;1.60;;;0.68;;
71759;SDS011;59919;48.112;16.280;2023-10-08T14:32:54;1.75;;;0.75;;
71759;SDS011;59919;48.112;16.280;2023-10-08T14:35:27;1.77;;;0.70;;
71759;SDS011;59919;48.112;16.280;2023-10-08T14:38:17;1.33;;;0.80;;
71759;SDS011;59919;48.112;16.280;2023-10-08T14:41:26;2.75;;;0.60;;
71759;SDS011;59919;48.112;16.280;2023-10-08T14:44:16;2.28;;;0.70;;
71759;SDS011;59919;48.112;16.280;2023-10-08T14:46:47;1.42;;;0.63;;
71759;SDS011;59919;48.112;16.280;2023-10-08T14:49:20;1.92;;;0.65;;
71759;SDS011;59919;48.112;16.280;2023-10-08T14:51:53;2.00;;;0.60;;
71759;SDS011;59919;48.112;16.280;2023-10-08T14:54:25;1.90;;;0.70;;
71759;SDS011;59919;48.112;16.280;2023-10-08T14:56:56;2.35;;;0.75;;
71759;SDS011;59919;48.112;16.280;2023-10-08T14:59:27;2.00;;;0.60;;
71759;SDS011;59919;48.112;16.280;2023-10-08T15:02:02;1.85;;;0.70;;
71759;SDS011;59919;48.112;16.280;2023-10-08T15:04:37;1.73;;;0.88;;
71759;SDS011;59919;48.112;16.280;2023-10-08T15:07:11;1.40;;;0.63;;
71759;SDS011;59919;48.112;16.280;2023-10-08T15:09:48;1.85;;;0.75;;
71759;SDS011;59919;48.112;16.280;2023-10-08T15:12:20;1.13;;;0.55;;
71759;SDS011;59919;48.112;16.280;2023-10-08T15:14:52;2.75;;;0.80;;
71759;SDS011;59919;48.112;16.280;2023-10-08T15:17:26;2.05;;;0.75;;
71759;SDS011;59919;48.112;16.280;2023-10-08T15:19:57;3.42;;;0.93;;
71759;SDS011;59919;48.112;16.280;2023-10-08T15:22:30;2.80;;;1.00;;
71759;SDS011;59919;48.112;16.280;2023-10-08T15:25:02;4.63;;;0.70;;
71759;SDS011;59919;48.112;16.280;2023-10-08T15:27:33;1.83;;;0.90;;
71759;SDS011;59919;48.112;16.280;2023-10-08T15:30:06;1.83;;;0.80;;
71759;SDS011;59919;48.112;16.280;2023-10-08T15:32:52;4.15;;;0.95;;
71759;SDS011;59919;48.112;16.280;2023-10-08T15:35:23;1.85;;;0.57;;